KFNL/FNL METAR and TAF weather

Enter ICAO airport designator
Station Type Date Time Source
KFNL METAR 2020/02/22 04:56 UTC NOAA

KFNL 220456Z AUTO 02006KT 10SM CLR 01/M09 A3014 RMK AO2 SLP224 T00061089 FZRANO


Station Type Date Time Source
KFNL Decoded METAR 2020/02/22 04:56 UTC NOAA

Fort Collins/Loveland, Fort Collins-Loveland Municipal Airport, CO, United States (KFNL) 40-27N 105-01W
Feb 21, 2020 - 11:56 PM EST / 2020.02.22 0456 UTC
Wind: from the NNE (020 degrees) at 7 MPH (6 KT):0
Visibility: 10 mile(s):0
Sky conditions: clear
Temperature: 33.1 F (0.6 C)
Windchill: 26 F (-3 C):1
Dew Point: 16.0 F (-8.9 C)
Relative Humidity: 48%
Pressure (altimeter): 30.14 in. Hg (1020 hPa)
ob: KFNL 220456Z AUTO 02006KT 10SM CLR 01/M09 A3014 RMK AO2 SLP224 T00061089 FZRANO
cycle: 5

Station Type Date Time Source
KFNL TAF UTC NOAA

Error!

Example: see airport list